North Stonington, Connecticut
Current Conditions -  °F | °C
As of 2:53 PM on Thursday 30 Oct 2014 (Local Time) from KWST Reporting Station
Overcast Overcast  
Wind Chill: 16°   Ceiling: 6000
Heat Index: 16°   Visibility: 10mi
Dew Point:   Wind: 8mph
Humidity: 38%   Direction: 300°WNW
Pressure: 29.93"   Gusts: NA
Location:  41.44°N, 71.88°W
Report Text: KWST 301853Z AUTO 30007KT 260V330 10SM OVC060 16/01 A2993 RMK AO2 SLP133 T01560011
Loading
Personal Weather Stations






























Interactive Weather Map
Tropical Storm Tracking
New forecast layout! Learn more

10-Day Weather Forecast

Advertisements
Track Severe Weather on mobile